Aviation Digital Data Service (ADDS)

Output produced by METARs form (1343 UTC 22 August 2014)
found at http://www.aviationweather.gov/adds/metars/
 
SEGU 221300Z 24006KT 9999 SCT030 SCT100 22/19 Q1013 RMK A2991 NOSIG
SEGU 220930Z 2212/2312 24005KT 9999 SCT020 SCT090 
     FM221700 13005KT 9999 SCT020 
     FM230000 21010KT 9999 FEW020 SCT090 
     TEMPO 2309/2312 BKN020 SCT090 TX31/2220Z TN22/2311Z
       
SEMT 221300Z 18010KT 9999 BKN020 23/21 Q1014
SEMT 220930Z 2212/2312 20010KT 9999 OVC020 
     FM221600 23010KT 9999 BKN023 
     FM230000 20008KT 9999 SCT023 SCT100 
     FM230600 19004KT 9999 BKN020 TX28/2220Z TN22/2309Z